Terminal Aerodrome Forecast
Issued by NWS Milwaukee/Sullivan, WI

Home | Current Version | Previous Version | Text Only | Print | Product List | Glossary On
Versions: 1 2 3 4 5 6 7 8 9 10 11 12 13 14 15 16 17 18 19 20 21 22 23 24 25 26 27 28 29 30 31 32 33 34 35 36 37 38 39 40 41 42 43 44 45 46 47 48 49 50
000
FTUS43 KMKX 250337 AAB
TAFMKE
TAF AMD
KMKE 250337Z 2504/2606 13006KT 3SM SHRA SCT040 BKN060
     FM250500 14007KT 6SM SHRA BR OVC060 WS020/20045KT
     FM251200 18012KT 3SM SHRA BR OVC010
     FM251700 22019G28KT P6SM SCT040
     FM260000 22015G24KT P6SM SCT200
     FM260300 21010KT P6SM SCT250=

USA.gov is the U.S. government's official web portal to all federal, state and local government web resources and services.